Blair, Illinois
Current Conditions -  °F | °C
As of 2:35 PM on Sunday 21 Dec 2014 (Local Time) from KFOA Reporting Station
Clear Clear  
Wind Chill: 35°   Ceiling: Unl
Heat Index: 41°   Visibility: 10mi
Dew Point: 30°   Wind: 10mph
Humidity: 66%   Direction: 130°SE
Pressure: 30.12"   Gusts: NA
Location:  38.8267°N, 88.5024°W
Report Text: KFOA 212035Z AUTO 13009KT 10SM CLR 05/M01 A3012 RMK AO2 T00501009
Loading
Personal Weather Stations






























Interactive Weather Map New forecast layout! Learn more

10-Day Weather Forecast

Advertisements
Track Severe Weather on mobile